createdAt,value
2022-11-30T00:16:32.592Z,275
2022-11-30T00:36:32.037Z,274
2022-11-30T00:56:32.532Z,274
2022-11-30T01:16:32.578Z,276
2022-11-30T01:36:32.699Z,275
2022-11-30T01:56:32.548Z,275
2022-11-30T02:16:32.584Z,275
2022-11-30T02:36:32.563Z,274
2022-11-30T02:56:32.383Z,272
2022-11-30T03:16:32.602Z,272
2022-11-30T03:36:32.588Z,273
2022-11-30T03:56:32.392Z,273
2022-11-30T04:16:32.645Z,275
2022-11-30T04:36:32.103Z,272
2022-11-30T04:56:32.621Z,272
2022-11-30T05:16:32.672Z,275
2022-11-30T05:36:32.651Z,270
2022-11-30T05:56:32.165Z,276
2022-11-30T06:16:32.677Z,273
2022-11-30T06:36:35.669Z,273
2022-11-30T06:56:32.692Z,270
2022-11-30T07:16:32.760Z,272
2022-11-30T07:36:32.701Z,274
2022-11-30T07:56:32.232Z,275
2022-11-30T08:16:32.749Z,271
2022-11-30T08:36:32.742Z,273
2022-11-30T08:56:32.756Z,270
2022-11-30T09:16:32.729Z,272
2022-11-30T09:36:32.785Z,270
2022-11-30T09:56:32.775Z,270
2022-11-30T10:16:32.690Z,269
2022-11-30T10:36:32.781Z,267
2022-11-30T10:56:32.771Z,269
2022-11-30T11:16:32.795Z,268
2022-11-30T11:36:32.808Z,267
2022-11-30T11:56:32.814Z,268
2022-11-30T12:16:32.959Z,269
2022-11-30T12:36:32.837Z,269
2022-11-30T12:56:32.855Z,269
2022-11-30T13:16:32.458Z,269
2022-11-30T13:36:32.910Z,269
2022-11-30T13:56:32.890Z,268
2022-11-30T14:16:32.950Z,267
2022-11-30T14:36:32.379Z,267
2022-11-30T14:56:32.953Z,267
2022-11-30T15:16:32.971Z,269
2022-11-30T15:36:33.964Z,268
2022-11-30T16:16:33.022Z,270
2022-11-30T16:36:32.933Z,269
2022-11-30T16:56:32.761Z,269
2022-11-30T17:16:32.987Z,271
2022-11-30T17:36:32.956Z,272
2022-11-30T17:56:32.969Z,271
2022-11-30T18:16:33.043Z,272
2022-11-30T18:36:32.985Z,272
2022-11-30T18:56:33.001Z,269
2022-11-30T19:36:33.043Z,271
2022-11-30T19:56:32.555Z,271
2022-11-30T20:16:33.085Z,269
2022-11-30T20:56:33.056Z,270
2022-11-30T21:16:33.160Z,270
2022-11-30T21:36:32.901Z,269
2022-11-30T21:56:33.079Z,269
2022-11-30T22:16:36.114Z,268
2022-11-30T22:36:33.107Z,267
2022-11-30T22:56:33.172Z,265
2022-11-30T23:16:33.178Z,265
2022-11-30T23:36:33.141Z,265
2022-11-30T23:56:33.156Z,266
